Time;durP1;ratioP1;P1;durP2;ratioP2;P2;SDS_P1;SDS_P2;PMS_P1;PMS_P2;Temp;Humidity;BMP_temperature;BMP_pressure;BME280_temperature;BME280_humidity;BME280_pressure;Samples;Min_cycle;Max_cycle;Signal;HPM_P1;HPM_P2
2022/10/14 00:01:25;;;;;;;;;;;;;;;-142.75;100.00;77312.47;4993153;28;19922;-68
2022/10/14 00:03:51;;;;;;;;;;;;;;;-142.75;100.00;77314.44;4993348;28;20365;-69
2022/10/14 00:06:18;;;;;;;;;;;;;;;-142.75;100.00;77310.50;4992810;28;20009;-69
2022/10/14 00:08:43;;;;;;;;;;;;;;;-142.75;100.00;77304.59;4993236;28;19960;-67
2022/10/14 00:11:11;;;;;;;;;;;;;;;-142.75;100.00;77290.81;4993390;28;19914;-68
2022/10/14 00:13:36;;;;;;;;;;;;;;;-142.75;100.00;77277.03;4991834;28;19914;-68
2022/10/14 00:16:01;;;;;;;;;;;;;;;-142.75;100.00;77271.13;4991722;28;19936;-68
2022/10/14 00:18:27;;;;;;;;;;;;;;;-142.75;100.00;77279.00;4992211;28;20376;-66
2022/10/14 00:20:53;;;;;;;;;;;;;;;-142.75;100.00;77249.47;4992294;28;19969;-68
2022/10/14 00:23:18;;;;;;;;;;;;;;;-142.75;100.00;77239.63;4991510;28;19945;-68
2022/10/14 00:25:43;;;;;;;;;;;;;;;-142.75;100.00;77223.88;4992833;28;20384;-67
2022/10/14 00:28:08;;;;;;;;;;;;;;;-142.75;100.00;77221.91;4990188;28;19924;-67
2022/10/14 00:30:34;;;;;;;;;;;;;;;-142.75;100.00;77217.97;4992106;28;20008;-68
2022/10/14 00:32:59;;;;;;;;;;;;;;;-142.75;100.00;77200.25;4991795;28;20265;-68
2022/10/14 00:35:24;;;;;;;;;;;;;;;-142.75;100.00;77210.09;4990873;28;19922;-67
2022/10/14 00:37:49;;;;;;;;;;;;;;;-142.75;100.00;77196.31;4990578;28;19981;-68
2022/10/14 00:40:14;;;;;;;;;;;;;;;-142.75;100.00;77180.56;4991182;28;19922;-67
2022/10/14 00:42:40;;;;;;;;;;;;;;;-142.75;100.00;77176.63;4991664;28;19925;-68
2022/10/14 00:45:10;;;;;;;;;;;;;;;-142.75;100.00;77166.78;4991744;28;20288;-68
2022/10/14 00:47:36;;;;;;;;;;;;;;;-142.75;100.00;77172.69;4990094;28;19953;-66
2022/10/14 00:50:02;;;;;;;;;;;;;;;-142.75;100.00;77168.75;4991207;28;20015;-68
2022/10/14 00:52:27;;;;;;;;;;;;;;;-142.75;100.00;77162.84;4991988;28;19964;-68
2022/10/14 00:54:55;;;;;;;;;;;;;;;-142.75;100.00;77156.94;4991737;28;20438;-68
2022/10/14 00:57:21;;;;;;;;;;;;;;;-142.75;100.00;77156.94;4990868;28;19920;-68
2022/10/14 00:59:46;;;;;;;;;;;;;;;-142.75;100.00;77149.06;4992306;28;20358;-68
2022/10/14 01:02:11;;;;;;;;;;;;;;;-142.75;100.00;77147.09;4992424;28;19914;-68
2022/10/14 01:04:38;;;;;;;;;;;;;;;-142.75;100.00;77139.22;4992396;28;20273;-68
2022/10/14 01:07:09;;;;;;;;;;;;;;;-142.75;100.00;77133.31;4992092;28;19995;-68
2022/10/14 01:09:39;;;;;;;;;;;;;;;-142.75;100.00;77129.38;4990990;28;19914;-67
2022/10/14 01:12:04;;;;;;;;;;;;;;;-142.75;100.00;77123.47;4992346;28;19914;-67
2022/10/14 01:14:35;;;;;;;;;;;;;;;-142.75;100.00;77121.50;4991709;28;20694;-69
2022/10/14 01:17:08;;;;;;;;;;;;;;;-142.75;100.00;77127.41;4994143;28;19941;-68
2022/10/14 01:19:36;;;;;;;;;;;;;;;-142.75;100.00;77117.56;4995944;28;20004;-67
2022/10/14 01:22:01;;;;;;;;;;;;;;;-142.75;100.00;77121.50;4996238;28;20000;-67
2022/10/14 01:24:26;;;;;;;;;;;;;;;-142.75;100.00;77109.69;4994941;28;20013;-67
2022/10/14 01:27:00;;;;;;;;;;;;;;;-142.75;100.00;77121.50;4995781;28;20319;-67
2022/10/14 01:29:44;;;;;;;;;;;;;;;-142.75;100.00;77103.78;4994760;28;20387;-67
2022/10/14 01:32:15;;;;;;;;;;;;;;;-142.75;100.00;77097.88;4995058;28;19918;-68
2022/10/14 01:34:49;;;;;;;;;;;;;;;-142.75;100.00;77082.13;4996558;28;19960;-69
2022/10/14 01:37:18;;;;;;;;;;;;;;;-142.75;100.00;77080.16;4996134;28;20012;-68
2022/10/14 01:39:45;;;;;;;;;;;;;;;-142.75;100.00;77070.31;4996245;28;20343;-67
2022/10/14 01:42:14;;;;;;;;;;;;;;;-142.75;100.00;77062.44;4994930;28;20376;-67
2022/10/14 01:44:42;;;;;;;;;;;;;;;-142.75;100.00;77054.56;4996313;28;19922;-68
2022/10/14 01:47:08;;;;;;;;;;;;;;;-142.75;100.00;77052.59;4995952;28;19913;-67
2022/10/14 01:49:35;;;;;;;;;;;;;;;-142.75;100.00;77046.69;4996112;28;20004;-68
2022/10/14 01:52:04;;;;;;;;;;;;;;;-142.75;100.00;77042.75;4996164;28;19963;-68
2022/10/14 01:54:32;;;;;;;;;;;;;;;-142.75;100.00;77030.94;4996140;28;19967;-68
2022/10/14 01:56:58;;;;;;;;;;;;;;;-142.75;100.00;77021.09;4995627;28;19914;-68
2022/10/14 01:59:24;;;;;;;;;;;;;;;-142.75;100.00;77011.25;4995908;28;20410;-67
2022/10/14 02:01:50;;;;;;;;;;;;;;;-142.75;100.00;77017.16;4996069;28;19914;-68
2022/10/14 02:04:16;;;;;;;;;;;;;;;-142.75;100.00;77019.13;4995935;28;19920;-68
2022/10/14 02:06:42;;;;;;;;;;;;;;;-142.75;100.00;77011.25;4997092;28;19917;-67
2022/10/14 02:09:19;;;;;;;;;;;;;;;-142.75;100.00;77005.34;4995768;28;19914;-68
2022/10/14 02:11:47;;;;;;;;;;;;;;;-142.75;100.00;77003.38;4995822;28;19921;-68
2022/10/14 02:14:20;;;;;;;;;;;;;;;-142.75;100.00;77007.31;4995735;28;19914;-68
2022/10/14 02:16:54;;;;;;;;;;;;;;;-142.75;100.00;77007.31;4995467;28;20391;-68
2022/10/14 02:19:27;;;;;;;;;;;;;;;-142.75;100.00;76999.44;4995420;28;20008;-68
2022/10/14 02:21:59;;;;;;;;;;;;;;;-142.75;100.00;77001.41;4995535;28;19921;-68
2022/10/14 02:24:32;;;;;;;;;;;;;;;-142.75;100.00;76997.47;4995531;28;19914;-68
2022/10/14 02:27:00;;;;;;;;;;;;;;;-142.75;100.00;76997.47;4995225;28;19960;-68
2022/10/14 02:29:26;;;;;;;;;;;;;;;-142.75;100.00;76987.63;4995379;28;19968;-68
2022/10/14 02:31:52;;;;;;;;;;;;;;;-142.75;100.00;76983.69;4995457;28;20340;-68
2022/10/14 02:34:19;;;;;;;;;;;;;;;-142.75;100.00;76993.53;4995269;28;19946;-68
2022/10/14 02:36:46;;;;;;;;;;;;;;;-142.75;100.00;76997.47;4995129;28;19918;-68
2022/10/14 02:39:14;;;;;;;;;;;;;;;-142.75;100.00;76981.72;4995117;28;19921;-68
2022/10/14 02:41:39;;;;;;;;;;;;;;;-142.75;100.00;76971.88;4995239;28;19921;-68
2022/10/14 02:44:05;;;;;;;;;;;;;;;-142.75;100.00;76973.84;4995187;28;19913;-68
2022/10/14 02:46:30;;;;;;;;;;;;;;;-142.75;100.00;76971.88;4995117;28;19913;-68
2022/10/14 02:48:56;;;;;;;;;;;;;;;-142.75;100.00;76964.00;4994841;28;19914;-67
2022/10/14 02:51:21;;;;;;;;;;;;;;;-142.75;100.00;76965.97;4995040;28;19972;-67
2022/10/14 02:53:46;;;;;;;;;;;;;;;-142.75;100.00;76960.06;4994565;28;19921;-68
2022/10/14 02:56:12;;;;;;;;;;;;;;;-142.75;100.00;76960.06;4993339;28;20387;-69
2022/10/14 02:58:37;;;;;;;;;;;;;;;-142.75;100.00;76942.34;4994614;28;19913;-68
2022/10/14 03:01:02;;;;;;;;;;;;;;;-142.75;100.00;76944.31;4994795;28;20284;-69
2022/10/14 03:03:28;;;;;;;;;;;;;;;-142.75;100.00;76936.44;4993519;28;19945;-67
2022/10/14 03:05:53;;;;;;;;;;;;;;;-142.75;100.00;76940.38;4994748;28;20004;-68
2022/10/14 03:08:18;;;;;;;;;;;;;;;-142.75;100.00;76920.69;4994479;28;19913;-68
2022/10/14 03:10:46;;;;;;;;;;;;;;;-142.75;100.00;76930.53;4994549;28;19921;-68
2022/10/14 03:13:12;;;;;;;;;;;;;;;-142.75;100.00;76932.50;4994710;28;20089;-68
2022/10/14 03:15:37;;;;;;;;;;;;;;;-142.75;100.00;76924.63;4993341;28;20025;-68
2022/10/14 03:18:02;;;;;;;;;;;;;;;-142.75;100.00;76928.56;4994215;28;19920;-68
2022/10/14 03:20:27;;;;;;;;;;;;;;;-142.75;100.00;76924.63;4994230;28;19921;-67
2022/10/14 03:22:53;;;;;;;;;;;;;;;-142.75;100.00;76914.78;4994454;28;19913;-67
2022/10/14 03:25:18;;;;;;;;;;;;;;;-142.75;100.00;76916.75;4994430;28;19914;-68
2022/10/14 03:27:43;;;;;;;;;;;;;;;-142.75;100.00;76920.69;4992806;28;20288;-69
2022/10/14 03:30:09;;;;;;;;;;;;;;;-142.75;100.00;76918.72;4994267;28;20383;-68
2022/10/14 03:32:34;;;;;;;;;;;;;;;-142.75;100.00;76920.69;4994196;28;20442;-68
2022/10/14 03:35:00;;;;;;;;;;;;;;;-142.75;100.00;76926.59;4994170;28;19913;-68
2022/10/14 03:37:25;;;;;;;;;;;;;;;-142.75;100.00;76928.56;4993296;28;19942;-68
2022/10/14 03:39:51;;;;;;;;;;;;;;;-142.75;100.00;76920.69;4993944;28;19922;-67
2022/10/14 03:42:17;;;;;;;;;;;;;;;-142.75;100.00;76926.59;4992853;28;20016;-69
2022/10/14 03:44:43;;;;;;;;;;;;;;;-142.75;100.00;76918.72;4994084;28;19953;-69
2022/10/14 03:47:08;;;;;;;;;;;;;;;-142.75;100.00;76912.81;4993703;28;19984;-68
2022/10/14 03:49:33;;;;;;;;;;;;;;;-142.75;100.00;76902.97;4992606;28;20419;-69
2022/10/14 03:51:59;;;;;;;;;;;;;;;-142.75;100.00;76901.00;4992616;28;20034;-69
2022/10/14 03:54:24;;;;;;;;;;;;;;;-142.75;100.00;76912.81;4993840;28;19914;-68
2022/10/14 03:56:49;;;;;;;;;;;;;;;-142.75;100.00;76895.09;4993563;28;19914;-68
2022/10/14 03:59:15;;;;;;;;;;;;;;;-142.75;100.00;76887.22;4993673;28;19917;-68
2022/10/14 04:01:40;;;;;;;;;;;;;;;-142.75;100.00;76893.13;4993773;28;19920;-68
2022/10/14 04:04:05;;;;;;;;;;;;;;;-142.75;100.00;76885.25;4993596;28;20299;-69
2022/10/14 04:06:31;;;;;;;;;;;;;;;-142.75;100.00;76885.25;4993488;28;19925;-68
2022/10/14 04:08:56;;;;;;;;;;;;;;;-142.75;100.00;76889.19;4992041;28;19914;-68
2022/10/14 04:11:21;;;;;;;;;;;;;;;-142.75;100.00;76893.13;4993605;28;20400;-67
2022/10/14 04:13:46;;;;;;;;;;;;;;;-142.75;100.00;76891.16;4993517;28;20288;-68
2022/10/14 04:16:11;;;;;;;;;;;;;;;-142.75;100.00;76887.22;4992221;28;19945;-68
2022/10/14 04:18:37;;;;;;;;;;;;;;;-142.75;100.00;76873.44;4992781;28;20008;-67
2022/10/14 04:21:04;;;;;;;;;;;;;;;-142.75;100.00;76881.31;4993442;28;19920;-68
2022/10/14 04:23:29;;;;;;;;;;;;;;;-142.75;100.00;76885.25;4991995;28;19920;-68
2022/10/14 04:25:54;;;;;;;;;;;;;;;-142.75;100.00;76877.38;4992097;28;19914;-68
2022/10/14 04:28:20;;;;;;;;;;;;;;;-142.75;100.00;76867.53;4992939;28;20376;-67
2022/10/14 04:30:45;;;;;;;;;;;;;;;-142.75;100.00;76871.47;4993172;28;19921;-69
2022/10/14 04:33:10;;;;;;;;;;;;;;;-142.75;100.00;76875.41;4993141;28;19924;-68
2022/10/14 04:35:35;;;;;;;;;;;;;;;-142.75;100.00;76867.53;4993152;28;19920;-68
2022/10/14 04:38:01;;;;;;;;;;;;;;;-142.75;100.00;76869.50;4992840;28;20502;-68
2022/10/14 04:40:26;;;;;;;;;;;;;;;-142.75;100.00;76863.59;4992955;28;19929;-68
2022/10/14 04:42:55;;;;;;;;;;;;;;;-142.75;100.00;76869.50;4993091;28;19924;-68
2022/10/14 04:45:20;;;;;;;;;;;;;;;-142.75;100.00;76867.53;4991756;28;19921;-67
2022/10/14 04:47:45;;;;;;;;;;;;;;;-142.75;100.00;76865.56;4992666;28;19929;-66
2022/10/14 04:50:11;;;;;;;;;;;;;;;-142.75;100.00;76863.59;4992027;28;20358;-68
2022/10/14 04:52:36;;;;;;;;;;;;;;;-142.75;100.00;76857.69;4992944;28;20009;-68
2022/10/14 04:55:02;;;;;;;;;;;;;;;-142.75;100.00;76859.66;4991681;28;19917;-68
2022/10/14 04:57:27;;;;;;;;;;;;;;;-142.75;100.00;76849.81;4992682;28;19913;-67
2022/10/14 04:59:52;;;;;;;;;;;;;;;-142.75;100.00;76849.81;4992732;28;19925;-68
2022/10/14 05:02:18;;;;;;;;;;;;;;;-142.75;100.00;76845.88;4992816;28;20303;-68
2022/10/14 05:04:43;;;;;;;;;;;;;;;-142.75;100.00;76849.81;4992868;28;19957;-68
2022/10/14 05:07:08;;;;;;;;;;;;;;;-142.75;100.00;76839.97;4991237;28;19940;-69
2022/10/14 05:09:33;;;;;;;;;;;;;;;-142.75;100.00;76832.09;4991463;28;20360;-68
2022/10/14 05:11:58;;;;;;;;;;;;;;;-142.75;100.00;76820.28;4992730;28;19914;-68
2022/10/14 05:14:23;;;;;;;;;;;;;;;-142.75;100.00;76822.25;4992790;28;19913;-68
2022/10/14 05:16:49;;;;;;;;;;;;;;;-142.75;100.00;76820.28;4992363;28;19914;-68
2022/10/14 05:21:45;;;;;;;;;;;;;;;-142.75;100.00;76804.53;5050446;22;19983;-66
2022/10/14 05:24:10;;;;;;;;;;;;;;;-142.75;100.00;76806.50;5011442;28;19917;-68
2022/10/14 05:26:35;;;;;;;;;;;;;;;-142.75;100.00;76818.31;5029173;28;19942;-68
2022/10/14 05:29:01;;;;;;;;;;;;;;;-142.75;100.00;76820.28;5030357;28;19920;-67
2022/10/14 05:31:26;;;;;;;;;;;;;;;-142.75;100.00;76818.31;5030463;28;20398;-67
2022/10/14 05:33:51;;;;;;;;;;;;;;;-142.75;100.00;76810.44;5030168;28;20007;-67
2022/10/14 05:36:16;;;;;;;;;;;;;;;-142.75;100.00;76810.44;5030021;28;19967;-68
2022/10/14 05:38:42;;;;;;;;;;;;;;;-142.75;100.00;76802.56;5029300;28;20294;-67
2022/10/14 05:41:08;;;;;;;;;;;;;;;-142.75;100.00;76804.53;5029109;28;19913;-67
2022/10/14 05:43:33;;;;;;;;;;;;;;;-142.75;100.00;76804.53;5029516;28;19920;-67
2022/10/14 05:45:58;;;;;;;;;;;;;;;-142.75;100.00;76794.69;5030475;28;19913;-67
2022/10/14 05:48:24;;;;;;;;;;;;;;;-142.75;100.00;76786.84;5029935;28;19952;-67
2022/10/14 05:50:49;;;;;;;;;;;;;;;-142.75;100.00;76790.78;5029421;28;19913;-66
2022/10/14 05:53:14;;;;;;;;;;;;;;;-142.75;100.00;76788.81;5029806;28;19913;-66
2022/10/14 05:55:40;;;;;;;;;;;;;;;-142.75;100.00;76796.69;5029705;28;20007;-66
2022/10/14 05:58:05;;;;;;;;;;;;;;;-142.75;100.00;76798.66;5029362;28;19935;-67
2022/10/14 06:00:31;;;;;;;;;;;;;;;-142.75;100.00;76788.81;5030588;28;20651;-67
2022/10/14 06:02:57;;;;;;;;;;;;;;;-142.75;100.00;76786.84;5033490;28;19932;-66
2022/10/14 06:05:22;;;;;;;;;;;;;;;-142.75;100.00;76790.78;5015180;28;19923;-67
2022/10/14 06:07:48;;;;;;;;;;;;;;;-142.75;100.00;76786.84;5032363;28;20035;-66
2022/10/14 06:10:13;;;;;;;;;;;;;;;-142.75;100.00;76777.00;5033590;28;19917;-67
2022/10/14 06:12:38;;;;;;;;;;;;;;;-142.75;100.00;76771.09;5032575;28;19913;-67
2022/10/14 06:15:04;;;;;;;;;;;;;;;-142.75;100.00;76773.06;5032660;28;19921;-67
2022/10/14 06:17:29;;;;;;;;;;;;;;;-142.75;100.00;76767.16;5032525;28;19913;-66
2022/10/14 06:19:54;;;;;;;;;;;;;;;-142.75;100.00;76769.13;5032885;28;19947;-66
2022/10/14 06:22:19;;;;;;;;;;;;;;;-142.75;100.00;76769.13;5032727;28;19968;-66
2022/10/14 06:24:45;;;;;;;;;;;;;;;-142.75;100.00;76757.31;5033115;28;20375;-67
2022/10/14 06:27:10;;;;;;;;;;;;;;;-142.75;100.00;76755.34;5029866;28;19921;-66
2022/10/14 06:29:37;;;;;;;;;;;;;;;-142.75;100.00;76759.28;5027055;28;19924;-66
2022/10/14 06:32:06;;;;;;;;;;;;;;;-142.75;100.00;76753.38;5027994;28;20382;-66
2022/10/14 06:34:31;;;;;;;;;;;;;;;-142.75;100.00;76755.34;5030508;28;20436;-66
2022/10/14 06:36:56;;;;;;;;;;;;;;;-142.75;100.00;76755.34;5029515;28;19920;-66
2022/10/14 06:39:21;;;;;;;;;;;;;;;-142.75;100.00;76743.53;5027708;28;19963;-66
2022/10/14 06:41:47;;;;;;;;;;;;;;;-142.75;100.00;76739.59;5030722;28;19936;-66
2022/10/14 06:44:14;;;;;;;;;;;;;;;-142.75;100.00;76743.53;5026649;28;19940;-67
2022/10/14 06:46:39;;;;;;;;;;;;;;;-142.75;100.00;76733.69;5027603;28;19960;-67
2022/10/14 06:49:04;;;;;;;;;;;;;;;-142.75;100.00;76737.63;5010789;28;20402;-67
2022/10/14 06:51:30;;;;;;;;;;;;;;;-142.75;100.00;76727.78;5029208;28;19972;-66
2022/10/14 06:53:55;;;;;;;;;;;;;;;-142.75;100.00;76725.81;5031629;28;19917;-67
2022/10/14 06:56:20;;;;;;;;;;;;;;;-142.75;100.00;76731.72;5013071;28;19921;-67
2022/10/14 06:58:45;;;;;;;;;;;;;;;-142.75;100.00;76733.69;5030607;28;20382;-67
2022/10/14 07:01:10;;;;;;;;;;;;;;;-142.75;100.00;76719.91;5031891;28;19916;-66
2022/10/14 07:03:37;;;;;;;;;;;;;;;-142.75;100.00;76712.03;5032249;28;19917;-67
2022/10/14 07:06:03;;;;;;;;;;;;;;;-142.75;100.00;76719.91;5032521;28;20319;-66
2022/10/14 07:08:29;;;;;;;;;;;;;;;-142.75;100.00;76706.13;5031145;28;19964;-65
2022/10/14 07:10:54;;;;;;;;;;;;;;;-142.75;100.00;76704.16;5033982;28;20012;-65
2022/10/14 07:13:19;;;;;;;;;;;;;;;-142.75;100.00;76704.16;5033066;28;19956;-67
2022/10/14 07:15:46;;;;;;;;;;;;;;;-142.75;100.00;76698.25;5033853;28;20267;-67
2022/10/14 07:18:12;;;;;;;;;;;;;;;-142.75;100.00;76700.22;5033498;28;19983;-67
2022/10/14 07:20:37;;;;;;;;;;;;;;;-142.75;100.00;76692.34;5033432;28;19921;-67
2022/10/14 07:23:02;;;;;;;;;;;;;;;-142.75;100.00;76690.38;5033795;28;19913;-67
2022/10/14 07:25:27;;;;;;;;;;;;;;;-142.75;100.00;76692.34;5032573;28;19917;-67
2022/10/14 07:27:52;;;;;;;;;;;;;;;-142.75;100.00;76690.38;5023110;28;19959;-67
2022/10/14 07:30:18;;;;;;;;;;;;;;;-142.75;100.00;76690.38;5018436;28;20359;-67
2022/10/14 07:32:43;;;;;;;;;;;;;;;-142.75;100.00;76684.47;5019829;28;19947;-67
2022/10/14 07:35:09;;;;;;;;;;;;;;;-142.75;100.00;76692.34;5022280;28;19928;-67
2022/10/14 07:37:34;;;;;;;;;;;;;;;-142.75;100.00;76690.38;5032870;28;20047;-67
2022/10/14 07:39:59;;;;;;;;;;;;;;;-142.75;100.00;76688.41;5033078;28;19917;-67
2022/10/14 07:42:24;;;;;;;;;;;;;;;-142.75;100.00;76682.50;5014903;28;20010;-67
2022/10/14 07:44:52;;;;;;;;;;;;;;;-142.75;100.00;76688.41;5033150;28;20000;-67
2022/10/14 07:47:17;;;;;;;;;;;;;;;-142.75;100.00;76692.34;5032567;28;19913;-67
2022/10/14 07:49:43;;;;;;;;;;;;;;;-142.75;100.00;76678.56;5032781;28;20408;-67
2022/10/14 07:52:08;;;;;;;;;;;;;;;-142.75;100.00;76688.41;5032769;28;19913;-67
2022/10/14 07:54:33;;;;;;;;;;;;;;;-142.75;100.00;76676.59;5032867;28;19921;-67
2022/10/14 07:56:58;;;;;;;;;;;;;;;-142.75;100.00;76676.59;5032286;28;20418;-67
2022/10/14 07:59:24;;;;;;;;;;;;;;;-142.75;100.00;76680.53;5032497;28;20015;-67
2022/10/14 08:01:50;;;;;;;;;;;;;;;-142.75;100.00;76684.47;5028207;28;19960;-67
2022/10/14 08:04:16;;;;;;;;;;;;;;;-142.75;100.00;76690.38;5032410;28;19945;-67
2022/10/14 08:06:41;;;;;;;;;;;;;;;-142.75;100.00;76684.47;5026525;28;19916;-67
2022/10/14 08:09:07;;;;;;;;;;;;;;;-142.75;100.00;76674.63;5032569;28;19914;-67
2022/10/14 08:11:32;;;;;;;;;;;;;;;-142.75;100.00;76664.78;5032394;28;19913;-68
2022/10/14 08:13:58;;;;;;;;;;;;;;;-142.75;100.00;76668.72;5032705;28;20299;-66
2022/10/14 08:16:25;;;;;;;;;;;;;;;-142.75;100.00;76666.75;5032468;28;19932;-67
2022/10/14 08:18:50;;;;;;;;;;;;;;;-142.75;100.00;76662.81;5031502;28;20387;-67
2022/10/14 08:21:16;;;;;;;;;;;;;;;-142.75;100.00;76652.97;5031706;28;19962;-67
2022/10/14 08:23:41;;;;;;;;;;;;;;;-142.75;100.00;76654.94;5031592;28;19920;-68
2022/10/14 08:26:33;;;;;;;;;;;;;;;-142.75;100.00;76660.84;5014152;28;20390;-67
2022/10/14 08:29:02;;;;;;;;;;;;;;;-142.75;100.00;76641.16;5028033;28;19982;-67
2022/10/14 08:31:28;;;;;;;;;;;;;;;-142.75;100.00;76637.22;5030426;28;19943;-67
2022/10/14 08:33:53;;;;;;;;;;;;;;;-142.75;100.00;76643.13;5027671;28;19921;-67
2022/10/14 08:36:19;;;;;;;;;;;;;;;-142.75;100.00;76643.13;5012964;28;19917;-67
2022/10/14 08:38:44;;;;;;;;;;;;;;;-142.75;100.00;76654.94;5028054;28;20383;-66
2022/10/14 08:41:13;;;;;;;;;;;;;;;-142.75;100.00;76649.03;5031469;28;19925;-66
2022/10/14 08:43:47;;;;;;;;;;;;;;;-142.75;100.00;76649.03;5009104;28;19923;-66
2022/10/14 08:46:20;;;;;;;;;;;;;;;-142.75;100.00;76631.31;5032382;28;19913;-65
2022/10/14 08:48:47;;;;;;;;;;;;;;;-142.75;100.00;76629.34;5025686;28;19951;-66
2022/10/14 08:51:13;;;;;;;;;;;;;;;-142.75;100.00;76627.38;5030495;28;19968;-67
2022/10/14 08:53:40;;;;;;;;;;;;;;;-142.75;100.00;76615.56;5027413;28;20036;-67
2022/10/14 08:56:06;;;;;;;;;;;;;;;-142.75;100.00;76617.53;5029561;28;19917;-66
2022/10/14 08:58:40;;;;;;;;;;;;;;;-142.75;100.00;76617.53;5031921;28;19963;-65
2022/10/14 09:01:17;;;;;;;;;;;;;;;-142.75;100.00;76617.53;5032221;28;20393;-67
2022/10/14 09:03:43;;;;;;;;;;;;;;;-142.75;100.00;76605.72;5030576;28;19917;-67
2022/10/14 09:06:18;;;;;;;;;;;;;;;-142.75;100.00;76613.59;5031358;28;19960;-66
2022/10/14 09:08:45;;;;;;;;;;;;;;;-142.75;100.00;76605.72;5027943;28;20027;-67
2022/10/14 09:11:16;;;;;;;;;;;;;;;-142.75;100.00;76609.66;5031632;28;19913;-67
2022/10/14 09:13:43;;;;;;;;;;;;;;;-142.75;100.00;76609.66;5029354;28;19920;-67
2022/10/14 09:16:11;;;;;;;;;;;;;;;-142.75;100.00;76597.84;5013779;28;20351;-67
2022/10/14 09:18:41;;;;;;;;;;;;;;;-142.75;100.00;76595.88;5030420;28;19913;-68
2022/10/14 09:21:24;;;;;;;;;;;;;;;-142.75;100.00;76593.91;5020523;28;20174;-67
2022/10/14 09:23:59;;;;;;;;;;;;;;;-142.75;100.00;76582.09;5045740;28;19914;-67
2022/10/14 09:26:28;;;;;;;;;;;;;;;-142.75;100.00;76586.03;5029627;28;20413;-67
2022/10/14 09:28:54;;;;;;;;;;;;;;;-142.75;100.00;76578.16;5031331;28;19956;-67
2022/10/14 09:31:19;;;;;;;;;;;;;;;-142.75;100.00;76586.03;5031418;28;19959;-67
2022/10/14 09:33:45;;;;;;;;;;;;;;;-142.75;100.00;76574.22;5030028;28;19913;-67
2022/10/14 09:36:17;;;;;;;;;;;;;;;-142.75;100.00;76566.34;5033206;28;19913;-67
2022/10/14 09:38:45;;;;;;;;;;;;;;;-142.75;100.00;76564.38;5032915;28;19913;-67
2022/10/14 09:41:13;;;;;;;;;;;;;;;-142.75;100.00;76560.44;5035330;28;19912;-68
2022/10/14 09:43:58;;;;;;;;;;;;;;;-142.75;100.00;76566.34;5032204;28;19936;-67
2022/10/14 09:46:24;;;;;;;;;;;;;;;-142.75;100.00;76566.34;5034048;28;19921;-67
2022/10/14 09:48:50;;;;;;;;;;;;;;;-142.75;100.00;76570.28;5034738;28;19913;-67
2022/10/14 09:51:17;;;;;;;;;;;;;;;-142.75;100.00;76546.66;5035825;28;19913;-67
2022/10/14 09:53:45;;;;;;;;;;;;;;;-142.75;100.00;76546.66;5035579;28;19913;-67
2022/10/14 09:56:11;;;;;;;;;;;;;;;-142.75;100.00;76552.56;5034419;28;19913;-67
2022/10/14 09:58:52;;;;;;;;;;;;;;;-142.75;100.00;76548.63;5035097;28;19913;-68
2022/10/14 10:01:19;;;;;;;;;;;;;;;-142.75;100.00;76550.59;5034017;28;19914;-67
2022/10/14 10:03:45;;;;;;;;;;;;;;;-142.75;100.00;76542.72;5035319;28;20382;-68
2022/10/14 10:06:13;;;;;;;;;;;;;;;-142.75;100.00;76536.84;5035263;28;19913;-67
2022/10/14 10:08:40;;;;;;;;;;;;;;;-142.75;100.00;76544.69;5034967;28;19939;-67
2022/10/14 10:11:12;;;;;;;;;;;;;;;-142.75;100.00;76542.72;5035097;28;19979;-68
2022/10/14 10:13:45;;;;;;;;;;;;;;;-142.75;100.00;76552.56;5035229;28;19913;-67
2022/10/14 10:16:20;;;;;;;;;;;;;;;-142.75;100.00;76550.59;5035065;28;19913;-68
2022/10/14 10:18:46;;;;;;;;;;;;;;;-142.75;100.00;76540.75;5034757;28;19913;-68
2022/10/14 10:21:29;;;;;;;;;;;;;;;-142.75;100.00;76530.91;5034805;28;19917;-68
2022/10/14 10:23:58;;;;;;;;;;;;;;;-142.75;100.00;76530.91;5035008;28;20358;-67
2022/10/14 10:26:25;;;;;;;;;;;;;;;-142.75;100.00;76530.91;5034834;28;19940;-68
2022/10/14 10:28:51;;;;;;;;;;;;;;;-142.75;100.00;76521.09;5034702;28;19913;-68
2022/10/14 10:31:16;;;;;;;;;;;;;;;-142.75;100.00;76517.16;5032820;28;20382;-68
2022/10/14 10:33:45;;;;;;;;;;;;;;;-142.75;100.00;76511.25;5034918;28;20386;-68
2022/10/14 10:36:19;;;;;;;;;;;;;;;-142.75;100.00;76509.28;5031381;28;19921;-68
2022/10/14 10:38:55;;;;;;;;;;;;;;;-142.75;100.00;76503.38;5034502;28;19948;-68
2022/10/14 10:41:38;;;;;;;;;;;;;;;-142.75;100.00;76509.28;5034639;28;19960;-68
2022/10/14 10:44:09;;;;;;;;;;;;;;;-142.75;100.00;76501.41;5034565;28;19917;-68
2022/10/14 10:46:39;;;;;;;;;;;;;;;-142.75;100.00;76489.59;5034121;28;19913;-68
2022/10/14 10:49:37;;;;;;;;;;;;;;;-142.75;100.00;76485.66;5034531;28;19913;-68
2022/10/14 10:52:13;;;;;;;;;;;;;;;-142.75;100.00;76479.75;5034459;28;20003;-68
2022/10/14 10:54:47;;;;;;;;;;;;;;;-142.75;100.00;76483.69;5016633;28;20409;-68
2022/10/14 10:57:23;;;;;;;;;;;;;;;-142.75;100.00;76489.59;5033988;28;20004;-67
2022/10/14 10:59:51;;;;;;;;;;;;;;;-142.75;100.00;76475.81;5034181;28;19924;-68
2022/10/14 11:02:32;;;;;;;;;;;;;;;-142.75;100.00;76471.88;5034229;28;19913;-67
2022/10/14 11:05:11;;;;;;;;;;;;;;;-142.75;100.00;76471.88;5034231;28;20362;-68
2022/10/14 11:13:44;;;;;;;;;;;;;;;-142.75;100.00;76450.22;5010577;28;20413;-68
2022/10/14 11:16:17;;;;;;;;;;;;;;;-142.75;100.00;76446.28;5016128;28;19916;-67
2022/10/14 11:18:51;;;;;;;;;;;;;;;-142.75;100.00;76420.69;5033607;28;19913;-68
2022/10/14 11:21:16;;;;;;;;;;;;;;;-142.75;100.00;76424.63;5056282;23;20516;-68
2022/10/14 11:23:42;;;;;;;;;;;;;;;-142.75;100.00;76401.00;5032698;28;19925;-68
2022/10/14 11:26:19;;;;;;;;;;;;;;;-142.75;100.00;76393.13;5033009;28;19995;-68
2022/10/14 11:28:47;;;;;;;;;;;;;;;-142.75;100.00;76377.38;5033406;28;19917;-68
2022/10/14 11:31:31;;;;;;;;;;;;;;;-142.75;100.00;76361.63;5032201;28;19921;-67
2022/10/14 11:34:05;;;;;;;;;;;;;;;-142.75;100.00;76365.56;5033630;28;20297;-68
2022/10/14 11:36:34;;;;;;;;;;;;;;;-142.75;100.00;76349.81;5033479;28;19917;-68
2022/10/14 11:39:08;;;;;;;;;;;;;;;-142.75;100.00;76341.97;5015676;28;19913;-68
2022/10/14 11:41:45;;;;;;;;;;;;;;;-142.75;100.00;76330.16;5033466;28;19917;-69
2022/10/14 11:44:29;;;;;;;;;;;;;;;-142.75;100.00;76334.09;5015626;28;19921;-67
2022/10/14 11:46:57;;;;;;;;;;;;;;;-142.75;100.00;76340.00;5033111;28;20313;-69
2022/10/14 11:49:28;;;;;;;;;;;;;;;-142.75;100.00;76334.09;5033335;28;19959;-69
2022/10/14 11:52:01;;;;;;;;;;;;;;;-142.75;100.00;76334.09;5033257;28;20568;-69
2022/10/14 11:54:38;;;;;;;;;;;;;;;-142.75;100.00;76334.09;5033252;28;19939;-68
2022/10/14 11:57:03;;;;;;;;;;;;;;;-142.75;100.00;76347.84;5032941;28;19914;-69
2022/10/14 11:59:35;;;;;;;;;;;;;;;-142.75;100.00;76363.59;5032553;28;20012;-67
2022/10/14 12:02:10;;;;;;;;;;;;;;;-142.75;100.00;76363.59;5031510;28;20316;-69
2022/10/14 12:04:39;;;;;;;;;;;;;;;-142.75;100.00;76359.66;5033076;28;19917;-68
2022/10/14 12:07:11;;;;;;;;;;;;;;;-142.75;100.00;76353.78;5032151;28;19913;-68
2022/10/14 12:09:43;;;;;;;;;;;;;;;-142.75;100.00;76369.50;5023009;28;19953;-68
2022/10/14 12:12:10;;;;;;;;;;;;;;;-142.75;100.00;76355.72;5032492;28;19936;-66
2022/10/14 12:15:02;;;;;;;;;;;;;;;-142.75;100.00;76341.97;5032324;28;19913;-67
2022/10/14 12:17:42;;;;;;;;;;;;;;;-142.75;100.00;76328.19;5009160;28;20433;-68
2022/10/14 12:20:25;;;;;;;;;;;;;;;-142.75;100.00;76314.41;5032735;28;19924;-68
2022/10/14 12:22:51;;;;;;;;;;;;;;;-142.75;100.00;76306.53;5032665;28;19917;-68
2022/10/14 12:25:19;;;;;;;;;;;;;;;-142.75;100.00;76286.84;5032747;28;20431;-69
2022/10/14 12:27:45;;;;;;;;;;;;;;;-142.75;100.00;76265.19;5032284;28;19921;-69
2022/10/14 12:30:36;;;;;;;;;;;;;;;-142.75;100.00;76251.41;5032705;28;19913;-68